sensor_id;sensor_type;location;lat;lon;timestamp;temperature;humidity
10231;DHT22;62604;49.432;8.680;2022-08-01T00:01:48;22.00;53.70
10231;DHT22;62604;49.432;8.680;2022-08-01T00:04:17;22.00;54.30
10231;DHT22;62604;49.432;8.680;2022-08-01T00:06:44;21.90;55.80
10231;DHT22;62604;49.432;8.680;2022-08-01T00:09:11;21.90;56.40
10231;DHT22;62604;49.432;8.680;2022-08-01T00:11:38;21.90;58.10
10231;DHT22;62604;49.432;8.680;2022-08-01T00:14:05;21.80;58.40
10231;DHT22;62604;49.432;8.680;2022-08-01T00:16:33;21.80;59.70
10231;DHT22;62604;49.432;8.680;2022-08-01T00:19:00;21.70;60.70
10231;DHT22;62604;49.432;8.680;2022-08-01T00:21:31;21.70;62.20
10231;DHT22;62604;49.432;8.680;2022-08-01T00:24:11;21.70;62.90
10231;DHT22;62604;49.432;8.680;2022-08-01T00:26:40;21.60;64.70
10231;DHT22;62604;49.432;8.680;2022-08-01T00:29:08;21.60;65.30
10231;DHT22;62604;49.432;8.680;2022-08-01T00:31:35;21.60;65.40
10231;DHT22;62604;49.432;8.680;2022-08-01T00:34:02;21.60;67.70
10231;DHT22;62604;49.432;8.680;2022-08-01T00:36:31;21.60;69.60
10231;DHT22;62604;49.432;8.680;2022-08-01T00:39:00;21.50;72.10
10231;DHT22;62604;49.432;8.680;2022-08-01T00:41:30;21.50;73.40
10231;DHT22;62604;49.432;8.680;2022-08-01T00:44:03;21.40;74.00
10231;DHT22;62604;49.432;8.680;2022-08-01T00:46:36;21.40;75.20
10231;DHT22;62604;49.432;8.680;2022-08-01T00:49:04;21.30;76.30
10231;DHT22;62604;49.432;8.680;2022-08-01T00:51:36;21.20;77.40
10231;DHT22;62604;49.432;8.680;2022-08-01T00:54:06;21.20;78.40
10231;DHT22;62604;49.432;8.680;2022-08-01T00:56:38;21.20;79.20
10231;DHT22;62604;49.432;8.680;2022-08-01T00:59:08;21.20;80.90
10231;DHT22;62604;49.432;8.680;2022-08-01T01:01:39;21.10;81.30
10231;DHT22;62604;49.432;8.680;2022-08-01T01:04:09;21.10;81.30
10231;DHT22;62604;49.432;8.680;2022-08-01T01:06:44;21.10;82.70
10231;DHT22;62604;49.432;8.680;2022-08-01T01:09:26;21.10;82.90
10231;DHT22;62604;49.432;8.680;2022-08-01T01:12:02;21.10;84.70
10231;DHT22;62604;49.432;8.680;2022-08-01T01:16:58;21.10;85.60
10231;DHT22;62604;49.432;8.680;2022-08-01T01:19:30;21.10;85.70
10231;DHT22;62604;49.432;8.680;2022-08-01T01:22:19;21.00;85.70
10231;DHT22;62604;49.432;8.680;2022-08-01T01:25:03;21.00;85.70
10231;DHT22;62604;49.432;8.680;2022-08-01T01:27:42;21.00;86.30
10231;DHT22;62604;49.432;8.680;2022-08-01T01:30:14;21.00;86.60
10231;DHT22;62604;49.432;8.680;2022-08-01T01:32:44;21.00;86.60
10231;DHT22;62604;49.432;8.680;2022-08-01T01:35:21;21.00;86.00
10231;DHT22;62604;49.432;8.680;2022-08-01T01:37:58;21.00;87.00
10231;DHT22;62604;49.432;8.680;2022-08-01T01:40:27;21.00;86.60
10231;DHT22;62604;49.432;8.680;2022-08-01T01:42:58;21.00;86.50
10231;DHT22;62604;49.432;8.680;2022-08-01T01:45:28;20.90;87.20
10231;DHT22;62604;49.432;8.680;2022-08-01T01:47:57;21.00;87.50
10231;DHT22;62604;49.432;8.680;2022-08-01T01:50:27;21.00;88.50
10231;DHT22;62604;49.432;8.680;2022-08-01T01:52:55;20.90;89.00
10231;DHT22;62604;49.432;8.680;2022-08-01T01:55:24;20.90;90.00
10231;DHT22;62604;49.432;8.680;2022-08-01T01:57:52;20.80;90.20
10231;DHT22;62604;49.432;8.680;2022-08-01T02:00:24;20.80;90.30
10231;DHT22;62604;49.432;8.680;2022-08-01T02:02:53;20.80;90.80
10231;DHT22;62604;49.432;8.680;2022-08-01T02:05:22;20.80;91.50
10231;DHT22;62604;49.432;8.680;2022-08-01T02:07:51;20.80;91.40
10231;DHT22;62604;49.432;8.680;2022-08-01T02:10:20;20.70;91.80
10231;DHT22;62604;49.432;8.680;2022-08-01T02:12:49;20.70;92.20
10231;DHT22;62604;49.432;8.680;2022-08-01T02:15:22;20.80;92.50
10231;DHT22;62604;49.432;8.680;2022-08-01T02:17:53;20.60;92.50
10231;DHT22;62604;49.432;8.680;2022-08-01T02:20:22;20.60;92.60
10231;DHT22;62604;49.432;8.680;2022-08-01T02:22:53;20.60;93.00
10231;DHT22;62604;49.432;8.680;2022-08-01T02:25:25;20.50;92.90
10231;DHT22;62604;49.432;8.680;2022-08-01T02:27:59;20.50;93.10
10231;DHT22;62604;49.432;8.680;2022-08-01T02:30:33;20.50;93.30
10231;DHT22;62604;49.432;8.680;2022-08-01T02:33:06;20.40;93.40
10231;DHT22;62604;49.432;8.680;2022-08-01T02:35:38;20.30;94.10
10231;DHT22;62604;49.432;8.680;2022-08-01T02:38:10;20.40;94.20
10231;DHT22;62604;49.432;8.680;2022-08-01T02:40:43;20.30;94.60
10231;DHT22;62604;49.432;8.680;2022-08-01T02:43:11;20.30;94.70
10231;DHT22;62604;49.432;8.680;2022-08-01T02:45:42;20.30;95.20
10231;DHT22;62604;49.432;8.680;2022-08-01T02:48:13;20.30;95.10
10231;DHT22;62604;49.432;8.680;2022-08-01T02:50:43;20.40;95.30
10231;DHT22;62604;49.432;8.680;2022-08-01T02:53:12;20.30;95.00
10231;DHT22;62604;49.432;8.680;2022-08-01T02:55:42;20.40;95.10
10231;DHT22;62604;49.432;8.680;2022-08-01T02:58:15;20.40;95.20
10231;DHT22;62604;49.432;8.680;2022-08-01T03:00:45;20.40;95.20
10231;DHT22;62604;49.432;8.680;2022-08-01T03:03:14;20.40;95.10
10231;DHT22;62604;49.432;8.680;2022-08-01T03:05:44;20.40;95.10
10231;DHT22;62604;49.432;8.680;2022-08-01T03:08:13;20.50;95.10
10231;DHT22;62604;49.432;8.680;2022-08-01T03:10:44;20.50;95.70
10231;DHT22;62604;49.432;8.680;2022-08-01T03:13:15;20.50;95.60
10231;DHT22;62604;49.432;8.680;2022-08-01T03:15:44;20.50;95.20
10231;DHT22;62604;49.432;8.680;2022-08-01T03:18:19;20.50;95.30
10231;DHT22;62604;49.432;8.680;2022-08-01T03:20:49;20.50;95.40
10231;DHT22;62604;49.432;8.680;2022-08-01T03:23:17;20.50;95.20
10231;DHT22;62604;49.432;8.680;2022-08-01T03:25:45;20.50;95.00
10231;DHT22;62604;49.432;8.680;2022-08-01T03:28:16;20.50;94.90
10231;DHT22;62604;49.432;8.680;2022-08-01T03:30:45;20.50;95.00
10231;DHT22;62604;49.432;8.680;2022-08-01T03:33:19;20.40;95.10
10231;DHT22;62604;49.432;8.680;2022-08-01T03:35:48;20.30;95.30
10231;DHT22;62604;49.432;8.680;2022-08-01T03:38:19;20.30;95.40
10231;DHT22;62604;49.432;8.680;2022-08-01T03:40:52;20.30;95.90
10231;DHT22;62604;49.432;8.680;2022-08-01T03:43:23;20.20;96.20
10231;DHT22;62604;49.432;8.680;2022-08-01T03:45:55;20.20;96.20
10231;DHT22;62604;49.432;8.680;2022-08-01T03:48:29;20.20;96.30
10231;DHT22;62604;49.432;8.680;2022-08-01T03:51:01;20.10;96.50
10231;DHT22;62604;49.432;8.680;2022-08-01T03:53:31;20.10;96.70
10231;DHT22;62604;49.432;8.680;2022-08-01T03:56:00;20.10;97.10
10231;DHT22;62604;49.432;8.680;2022-08-01T03:58:28;20.10;97.30
10231;DHT22;62604;49.432;8.680;2022-08-01T04:00:57;20.10;97.20
10231;DHT22;62604;49.432;8.680;2022-08-01T04:03:24;20.00;97.20
10231;DHT22;62604;49.432;8.680;2022-08-01T04:05:53;20.00;96.80
10231;DHT22;62604;49.432;8.680;2022-08-01T04:08:21;20.00;97.30
10231;DHT22;62604;49.432;8.680;2022-08-01T04:10:49;20.10;97.40
10231;DHT22;62604;49.432;8.680;2022-08-01T04:13:17;20.10;97.70
10231;DHT22;62604;49.432;8.680;2022-08-01T04:15:44;20.00;97.30
10231;DHT22;62604;49.432;8.680;2022-08-01T04:18:11;20.00;97.10
10231;DHT22;62604;49.432;8.680;2022-08-01T04:20:38;20.00;97.20
10231;DHT22;62604;49.432;8.680;2022-08-01T04:23:09;20.10;97.20
10231;DHT22;62604;49.432;8.680;2022-08-01T04:25:37;20.10;97.10
10231;DHT22;62604;49.432;8.680;2022-08-01T04:28:07;20.10;97.10
10231;DHT22;62604;49.432;8.680;2022-08-01T04:30:44;20.10;97.10
10231;DHT22;62604;49.432;8.680;2022-08-01T04:33:14;20.20;97.20
10231;DHT22;62604;49.432;8.680;2022-08-01T04:35:46;20.20;97.20
10231;DHT22;62604;49.432;8.680;2022-08-01T04:38:19;20.20;97.10
10231;DHT22;62604;49.432;8.680;2022-08-01T04:40:49;20.20;96.90
10231;DHT22;62604;49.432;8.680;2022-08-01T04:43:19;20.20;96.90
10231;DHT22;62604;49.432;8.680;2022-08-01T04:45:47;20.20;96.90
10231;DHT22;62604;49.432;8.680;2022-08-01T04:48:17;20.20;97.00
10231;DHT22;62604;49.432;8.680;2022-08-01T04:50:47;20.30;97.00
10231;DHT22;62604;49.432;8.680;2022-08-01T04:53:20;20.40;97.00
10231;DHT22;62604;49.432;8.680;2022-08-01T04:55:49;20.40;96.70
10231;DHT22;62604;49.432;8.680;2022-08-01T04:58:19;20.50;96.40
10231;DHT22;62604;49.432;8.680;2022-08-01T05:00:47;20.50;96.20
10231;DHT22;62604;49.432;8.680;2022-08-01T05:03:14;20.60;95.90
10231;DHT22;62604;49.432;8.680;2022-08-01T05:05:41;20.70;95.70
10231;DHT22;62604;49.432;8.680;2022-08-01T05:08:08;20.70;95.50
10231;DHT22;62604;49.432;8.680;2022-08-01T05:10:36;20.70;95.60
10231;DHT22;62604;49.432;8.680;2022-08-01T05:13:03;20.80;95.40
10231;DHT22;62604;49.432;8.680;2022-08-01T05:15:32;20.90;95.10
10231;DHT22;62604;49.432;8.680;2022-08-01T05:17:58;21.00;95.40
10231;DHT22;62604;49.432;8.680;2022-08-01T05:20:25;21.10;95.20
10231;DHT22;62604;49.432;8.680;2022-08-01T05:22:52;21.20;94.90
10231;DHT22;62604;49.432;8.680;2022-08-01T05:25:19;21.20;95.00
10231;DHT22;62604;49.432;8.680;2022-08-01T05:27:48;21.30;94.40
10231;DHT22;62604;49.432;8.680;2022-08-01T05:30:15;21.30;94.30
10231;DHT22;62604;49.432;8.680;2022-08-01T05:32:42;21.40;93.50
10231;DHT22;62604;49.432;8.680;2022-08-01T05:35:09;21.40;93.20
10231;DHT22;62604;49.432;8.680;2022-08-01T05:37:36;21.50;92.30
10231;DHT22;62604;49.432;8.680;2022-08-01T05:40:04;21.60;91.60
10231;DHT22;62604;49.432;8.680;2022-08-01T05:42:31;21.70;91.50
10231;DHT22;62604;49.432;8.680;2022-08-01T05:45:00;21.80;91.40
10231;DHT22;62604;49.432;8.680;2022-08-01T05:47:27;21.90;91.10
10231;DHT22;62604;49.432;8.680;2022-08-01T05:49:54;22.10;91.00
10231;DHT22;62604;49.432;8.680;2022-08-01T05:52:21;22.20;90.40
10231;DHT22;62604;49.432;8.680;2022-08-01T05:54:48;22.10;89.00
10231;DHT22;62604;49.432;8.680;2022-08-01T05:57:15;22.10;89.40
10231;DHT22;62604;49.432;8.680;2022-08-01T05:59:41;22.10;90.10
10231;DHT22;62604;49.432;8.680;2022-08-01T06:02:15;22.00;89.60
10231;DHT22;62604;49.432;8.680;2022-08-01T06:04:47;22.00;89.70
10231;DHT22;62604;49.432;8.680;2022-08-01T06:07:24;21.90;89.60
10231;DHT22;62604;49.432;8.680;2022-08-01T06:10:02;21.90;89.50
10231;DHT22;62604;49.432;8.680;2022-08-01T06:12:49;22.00;89.30
10231;DHT22;62604;49.432;8.680;2022-08-01T06:15:31;22.10;89.40
10231;DHT22;62604;49.432;8.680;2022-08-01T06:18:00;22.30;90.10
10231;DHT22;62604;49.432;8.680;2022-08-01T06:20:27;22.40;90.00
10231;DHT22;62604;49.432;8.680;2022-08-01T06:22:54;22.40;88.20
10231;DHT22;62604;49.432;8.680;2022-08-01T06:25:21;22.50;88.20
10231;DHT22;62604;49.432;8.680;2022-08-01T06:27:48;22.50;87.90
10231;DHT22;62604;49.432;8.680;2022-08-01T06:30:15;22.60;88.70
10231;DHT22;62604;49.432;8.680;2022-08-01T06:32:42;22.70;87.50
10231;DHT22;62604;49.432;8.680;2022-08-01T06:35:10;22.90;87.60
10231;DHT22;62604;49.432;8.680;2022-08-01T06:37:38;23.00;86.30
10231;DHT22;62604;49.432;8.680;2022-08-01T06:40:07;23.20;85.80
10231;DHT22;62604;49.432;8.680;2022-08-01T06:42:35;23.40;84.60
10231;DHT22;62604;49.432;8.680;2022-08-01T06:45:02;23.60;83.80
10231;DHT22;62604;49.432;8.680;2022-08-01T06:47:30;23.90;83.10
10231;DHT22;62604;49.432;8.680;2022-08-01T06:49:58;24.10;81.30
10231;DHT22;62604;49.432;8.680;2022-08-01T06:52:26;24.40;80.00
10231;DHT22;62604;49.432;8.680;2022-08-01T06:54:53;24.50;78.80
10231;DHT22;62604;49.432;8.680;2022-08-01T06:57:21;24.60;77.50
10231;DHT22;62604;49.432;8.680;2022-08-01T06:59:49;24.40;76.70
10231;DHT22;62604;49.432;8.680;2022-08-01T07:02:17;24.40;79.90
10231;DHT22;62604;49.432;8.680;2022-08-01T07:04:45;24.30;78.30
10231;DHT22;62604;49.432;8.680;2022-08-01T07:07:12;24.30;77.70
10231;DHT22;62604;49.432;8.680;2022-08-01T07:09:41;24.50;78.10
10231;DHT22;62604;49.432;8.680;2022-08-01T07:12:08;25.00;77.00
10231;DHT22;62604;49.432;8.680;2022-08-01T07:14:38;25.20;75.10
10231;DHT22;62604;49.432;8.680;2022-08-01T07:17:05;25.80;72.90
10231;DHT22;62604;49.432;8.680;2022-08-01T07:19:32;25.50;70.00
10231;DHT22;62604;49.432;8.680;2022-08-01T07:22:01;24.70;73.10
10231;DHT22;62604;49.432;8.680;2022-08-01T07:24:28;24.80;74.30
10231;DHT22;62604;49.432;8.680;2022-08-01T07:26:57;25.10;75.00
10231;DHT22;62604;49.432;8.680;2022-08-01T07:29:25;25.40;72.90
10231;DHT22;62604;49.432;8.680;2022-08-01T07:31:55;25.80;70.50
10231;DHT22;62604;49.432;8.680;2022-08-01T07:34:24;25.40;68.70
10231;DHT22;62604;49.432;8.680;2022-08-01T07:36:54;25.00;70.60
10231;DHT22;62604;49.432;8.680;2022-08-01T07:39:21;25.30;71.60
10231;DHT22;62604;49.432;8.680;2022-08-01T07:41:50;25.80;68.40
10231;DHT22;62604;49.432;8.680;2022-08-01T07:44:19;26.00;69.00
10231;DHT22;62604;49.432;8.680;2022-08-01T07:46:46;26.60;66.40
10231;DHT22;62604;49.432;8.680;2022-08-01T07:49:14;27.50;64.60
10231;DHT22;62604;49.432;8.680;2022-08-01T07:51:41;28.20;59.90
10231;DHT22;62604;49.432;8.680;2022-08-01T07:54:08;28.50;55.30
10231;DHT22;62604;49.432;8.680;2022-08-01T07:56:35;28.10;55.00
10231;DHT22;62604;49.432;8.680;2022-08-01T07:59:02;27.80;56.80
10231;DHT22;62604;49.432;8.680;2022-08-01T08:01:31;28.20;56.50
10231;DHT22;62604;49.432;8.680;2022-08-01T08:03:58;28.50;55.00
10231;DHT22;62604;49.432;8.680;2022-08-01T08:06:25;28.40;53.80
10231;DHT22;62604;49.432;8.680;2022-08-01T08:08:52;28.30;55.20
10231;DHT22;62604;49.432;8.680;2022-08-01T08:11:19;28.00;54.10
10231;DHT22;62604;49.432;8.680;2022-08-01T08:13:46;27.00;56.10
10231;DHT22;62604;49.432;8.680;2022-08-01T08:16:14;26.40;58.20
10231;DHT22;62604;49.432;8.680;2022-08-01T08:18:42;26.20;59.20
10231;DHT22;62604;49.432;8.680;2022-08-01T08:21:09;26.00;60.50
10231;DHT22;62604;49.432;8.680;2022-08-01T08:23:36;26.50;59.80
10231;DHT22;62604;49.432;8.680;2022-08-01T08:26:21;27.40;59.40
10231;DHT22;62604;49.432;8.680;2022-08-01T08:28:49;28.70;54.90
10231;DHT22;62604;49.432;8.680;2022-08-01T08:31:16;29.80;50.10
10231;DHT22;62604;49.432;8.680;2022-08-01T08:33:44;30.60;47.00
10231;DHT22;62604;49.432;8.680;2022-08-01T08:36:13;30.90;45.30
10231;DHT22;62604;49.432;8.680;2022-08-01T08:38:40;29.60;45.50
10231;DHT22;62604;49.432;8.680;2022-08-01T08:41:08;29.50;47.10
10231;DHT22;62604;49.432;8.680;2022-08-01T08:43:37;29.80;46.50
10231;DHT22;62604;49.432;8.680;2022-08-01T08:46:08;29.60;45.70
10231;DHT22;62604;49.432;8.680;2022-08-01T08:48:36;30.40;44.20
10231;DHT22;62604;49.432;8.680;2022-08-01T08:51:05;31.00;42.50
10231;DHT22;62604;49.432;8.680;2022-08-01T08:53:35;31.40;38.30
10231;DHT22;62604;49.432;8.680;2022-08-01T08:56:03;30.20;40.00
10231;DHT22;62604;49.432;8.680;2022-08-01T08:58:33;30.30;41.90
10231;DHT22;62604;49.432;8.680;2022-08-01T09:01:04;30.00;41.40
10231;DHT22;62604;49.432;8.680;2022-08-01T09:03:32;30.30;42.50
10231;DHT22;62604;49.432;8.680;2022-08-01T09:05:59;30.80;39.70
10231;DHT22;62604;49.432;8.680;2022-08-01T09:08:28;31.00;38.70
10231;DHT22;62604;49.432;8.680;2022-08-01T09:10:55;31.00;41.60
10231;DHT22;62604;49.432;8.680;2022-08-01T09:13:22;32.00;38.70
10231;DHT22;62604;49.432;8.680;2022-08-01T09:15:51;32.90;35.70
10231;DHT22;62604;49.432;8.680;2022-08-01T09:18:26;33.00;34.80
10231;DHT22;62604;49.432;8.680;2022-08-01T09:21:08;33.00;34.30
10231;DHT22;62604;49.432;8.680;2022-08-01T09:23:38;33.30;33.00
10231;DHT22;62604;49.432;8.680;2022-08-01T09:26:07;32.70;30.50
10231;DHT22;62604;49.432;8.680;2022-08-01T09:28:35;30.60;34.70
10231;DHT22;62604;49.432;8.680;2022-08-01T09:31:06;30.00;37.80
10231;DHT22;62604;49.432;8.680;2022-08-01T09:33:47;30.20;37.80
10231;DHT22;62604;49.432;8.680;2022-08-01T09:36:15;30.20;37.50
10231;DHT22;62604;49.432;8.680;2022-08-01T09:38:43;30.10;38.00
10231;DHT22;62604;49.432;8.680;2022-08-01T09:41:10;30.10;38.00
10231;DHT22;62604;49.432;8.680;2022-08-01T09:43:38;29.90;39.60
10231;DHT22;62604;49.432;8.680;2022-08-01T09:46:10;30.30;38.50
10231;DHT22;62604;49.432;8.680;2022-08-01T09:48:38;30.30;38.00
10231;DHT22;62604;49.432;8.680;2022-08-01T09:51:06;30.10;39.00
10231;DHT22;62604;49.432;8.680;2022-08-01T09:53:40;29.70;39.10
10231;DHT22;62604;49.432;8.680;2022-08-01T09:56:12;29.60;39.80
10231;DHT22;62604;49.432;8.680;2022-08-01T09:58:50;29.50;40.50
10231;DHT22;62604;49.432;8.680;2022-08-01T10:01:20;29.80;40.20
10231;DHT22;62604;49.432;8.680;2022-08-01T10:03:47;30.10;39.70
10231;DHT22;62604;49.432;8.680;2022-08-01T10:06:29;30.00;40.00
10231;DHT22;62604;49.432;8.680;2022-08-01T10:08:56;31.00;39.80
10231;DHT22;62604;49.432;8.680;2022-08-01T10:11:25;32.10;35.30
10231;DHT22;62604;49.432;8.680;2022-08-01T10:13:53;33.10;32.80
10231;DHT22;62604;49.432;8.680;2022-08-01T10:16:20;30.80;33.30
10231;DHT22;62604;49.432;8.680;2022-08-01T10:18:47;31.00;35.30
10231;DHT22;62604;49.432;8.680;2022-08-01T10:21:15;30.80;34.90
10231;DHT22;62604;49.432;8.680;2022-08-01T10:23:44;31.40;35.70
10231;DHT22;62604;49.432;8.680;2022-08-01T10:26:12;32.40;34.70
10231;DHT22;62604;49.432;8.680;2022-08-01T10:28:41;33.50;31.20
10231;DHT22;62604;49.432;8.680;2022-08-01T10:31:11;33.90;28.30
10231;DHT22;62604;49.432;8.680;2022-08-01T10:33:39;34.30;27.60
10231;DHT22;62604;49.432;8.680;2022-08-01T10:36:07;33.90;27.20
10231;DHT22;62604;49.432;8.680;2022-08-01T10:38:35;34.40;27.80
10231;DHT22;62604;49.432;8.680;2022-08-01T10:41:03;35.00;25.90
10231;DHT22;62604;49.432;8.680;2022-08-01T10:43:30;34.90;24.80
10231;DHT22;62604;49.432;8.680;2022-08-01T10:45:59;34.40;27.00
10231;DHT22;62604;49.432;8.680;2022-08-01T10:48:31;33.80;26.10
10231;DHT22;62604;49.432;8.680;2022-08-01T10:51:02;33.30;27.10
10231;DHT22;62604;49.432;8.680;2022-08-01T10:53:30;32.80;28.30
10231;DHT22;62604;49.432;8.680;2022-08-01T10:56:00;32.70;29.50
10231;DHT22;62604;49.432;8.680;2022-08-01T10:58:28;32.90;29.40
10231;DHT22;62604;49.432;8.680;2022-08-01T11:01:20;32.90;29.00
10231;DHT22;62604;49.432;8.680;2022-08-01T11:04:03;33.10;28.80
10231;DHT22;62604;49.432;8.680;2022-08-01T11:09:25;32.30;28.10
10231;DHT22;62604;49.432;8.680;2022-08-01T11:12:05;33.20;28.40
10231;DHT22;62604;49.432;8.680;2022-08-01T11:14:35;33.20;28.50
10231;DHT22;62604;49.432;8.680;2022-08-01T11:23:19;33.40;27.40
10231;DHT22;62604;49.432;8.680;2022-08-01T11:26:09;32.90;28.00
10231;DHT22;62604;49.432;8.680;2022-08-01T11:28:37;32.50;28.20
10231;DHT22;62604;49.432;8.680;2022-08-01T11:31:30;32.20;30.00
10231;DHT22;62604;49.432;8.680;2022-08-01T11:33:59;32.00;29.20
10231;DHT22;62604;49.432;8.680;2022-08-01T11:36:26;31.60;31.40
10231;DHT22;62604;49.432;8.680;2022-08-01T11:39:19;31.70;30.80
10231;DHT22;62604;49.432;8.680;2022-08-01T11:41:47;32.00;30.10
10231;DHT22;62604;49.432;8.680;2022-08-01T11:44:20;31.90;29.00
10231;DHT22;62604;49.432;8.680;2022-08-01T11:46:56;31.30;30.40
10231;DHT22;62604;49.432;8.680;2022-08-01T11:49:46;31.50;29.70
10231;DHT22;62604;49.432;8.680;2022-08-01T11:52:17;31.80;30.40
10231;DHT22;62604;49.432;8.680;2022-08-01T11:54:48;32.10;29.50
10231;DHT22;62604;49.432;8.680;2022-08-01T11:57:18;32.00;29.50
10231;DHT22;62604;49.432;8.680;2022-08-01T11:59:47;30.80;29.50
10231;DHT22;62604;49.432;8.680;2022-08-01T12:02:27;30.80;31.00
10231;DHT22;62604;49.432;8.680;2022-08-01T12:04:56;30.80;31.80
10231;DHT22;62604;49.432;8.680;2022-08-01T12:07:24;30.90;31.80
10231;DHT22;62604;49.432;8.680;2022-08-01T12:10:01;31.40;32.10
10231;DHT22;62604;49.432;8.680;2022-08-01T12:12:30;31.40;29.80
10231;DHT22;62604;49.432;8.680;2022-08-01T12:14:59;30.70;31.20
10231;DHT22;62604;49.432;8.680;2022-08-01T12:17:32;30.60;31.40
10231;DHT22;62604;49.432;8.680;2022-08-01T12:19:59;31.40;31.90
10231;DHT22;62604;49.432;8.680;2022-08-01T12:22:26;31.60;30.00
10231;DHT22;62604;49.432;8.680;2022-08-01T12:24:53;32.00;30.30
10231;DHT22;62604;49.432;8.680;2022-08-01T12:27:26;32.00;28.40
10231;DHT22;62604;49.432;8.680;2022-08-01T12:29:54;31.80;28.60
10231;DHT22;62604;49.432;8.680;2022-08-01T12:32:24;31.70;29.50
10231;DHT22;62604;49.432;8.680;2022-08-01T12:34:52;32.20;30.20
10231;DHT22;62604;49.432;8.680;2022-08-01T12:37:20;32.70;29.20
10231;DHT22;62604;49.432;8.680;2022-08-01T12:39:47;33.00;28.80
10231;DHT22;62604;49.432;8.680;2022-08-01T12:42:14;33.10;27.80
10231;DHT22;62604;49.432;8.680;2022-08-01T12:44:47;33.20;27.70
10231;DHT22;62604;49.432;8.680;2022-08-01T12:47:17;33.30;26.50
10231;DHT22;62604;49.432;8.680;2022-08-01T12:49:44;33.60;27.40
10231;DHT22;62604;49.432;8.680;2022-08-01T12:52:12;33.10;27.80
10231;DHT22;62604;49.432;8.680;2022-08-01T12:55:00;32.50;27.50
10231;DHT22;62604;49.432;8.680;2022-08-01T12:57:27;32.90;28.00
10231;DHT22;62604;49.432;8.680;2022-08-01T13:00:13;32.90;28.00
10231;DHT22;62604;49.432;8.680;2022-08-01T13:02:41;33.20;27.10
10231;DHT22;62604;49.432;8.680;2022-08-01T13:05:09;33.60;26.60
10231;DHT22;62604;49.432;8.680;2022-08-01T13:07:41;33.90;26.70
10231;DHT22;62604;49.432;8.680;2022-08-01T13:10:09;34.10;25.30
10231;DHT22;62604;49.432;8.680;2022-08-01T13:12:37;33.70;25.20
10231;DHT22;62604;49.432;8.680;2022-08-01T13:15:22;31.90;25.20
10231;DHT22;62604;49.432;8.680;2022-08-01T13:17:50;31.00;27.40
10231;DHT22;62604;49.432;8.680;2022-08-01T13:20:30;31.00;29.00
10231;DHT22;62604;49.432;8.680;2022-08-01T13:23:11;31.20;27.80
10231;DHT22;62604;49.432;8.680;2022-08-01T13:25:53;31.50;28.40
10231;DHT22;62604;49.432;8.680;2022-08-01T13:28:23;31.40;28.90
10231;DHT22;62604;49.432;8.680;2022-08-01T13:30:57;31.40;27.90
10231;DHT22;62604;49.432;8.680;2022-08-01T13:33:27;31.40;28.70
10231;DHT22;62604;49.432;8.680;2022-08-01T13:35:55;31.40;29.50
10231;DHT22;62604;49.432;8.680;2022-08-01T13:38:23;31.30;28.20
10231;DHT22;62604;49.432;8.680;2022-08-01T13:41:03;31.20;29.40
10231;DHT22;62604;49.432;8.680;2022-08-01T13:43:31;31.20;29.10
10231;DHT22;62604;49.432;8.680;2022-08-01T13:46:00;31.10;28.80
10231;DHT22;62604;49.432;8.680;2022-08-01T13:48:28;30.20;28.90
10231;DHT22;62604;49.432;8.680;2022-08-01T13:50:55;29.60;30.00
10231;DHT22;62604;49.432;8.680;2022-08-01T13:53:22;29.80;30.50
10231;DHT22;62604;49.432;8.680;2022-08-01T13:55:49;30.20;30.90
10231;DHT22;62604;49.432;8.680;2022-08-01T13:58:16;30.30;30.20
10231;DHT22;62604;49.432;8.680;2022-08-01T14:00:43;30.40;31.70
10231;DHT22;62604;49.432;8.680;2022-08-01T14:03:12;30.40;30.80
10231;DHT22;62604;49.432;8.680;2022-08-01T14:05:39;30.40;31.90
10231;DHT22;62604;49.432;8.680;2022-08-01T14:08:06;30.40;30.10
10231;DHT22;62604;49.432;8.680;2022-08-01T14:10:34;30.40;30.10
10231;DHT22;62604;49.432;8.680;2022-08-01T14:13:01;30.30;30.20
10231;DHT22;62604;49.432;8.680;2022-08-01T14:15:28;29.80;30.00
10231;DHT22;62604;49.432;8.680;2022-08-01T14:17:55;29.80;30.30
10231;DHT22;62604;49.432;8.680;2022-08-01T14:20:23;29.80;30.30
10231;DHT22;62604;49.432;8.680;2022-08-01T14:22:50;29.80;30.50
10231;DHT22;62604;49.432;8.680;2022-08-01T14:25:17;29.80;30.00
10231;DHT22;62604;49.432;8.680;2022-08-01T14:27:45;30.00;31.20
10231;DHT22;62604;49.432;8.680;2022-08-01T14:30:13;30.20;30.90
10231;DHT22;62604;49.432;8.680;2022-08-01T14:32:40;30.10;31.70
10231;DHT22;62604;49.432;8.680;2022-08-01T14:35:07;30.20;30.90
10231;DHT22;62604;49.432;8.680;2022-08-01T14:37:36;30.20;30.70
10231;DHT22;62604;49.432;8.680;2022-08-01T14:40:04;30.20;30.70
10231;DHT22;62604;49.432;8.680;2022-08-01T14:42:35;30.30;30.00
10231;DHT22;62604;49.432;8.680;2022-08-01T14:45:03;30.40;31.60
10231;DHT22;62604;49.432;8.680;2022-08-01T14:47:34;30.50;30.80
10231;DHT22;62604;49.432;8.680;2022-08-01T14:50:02;30.30;30.30
10231;DHT22;62604;49.432;8.680;2022-08-01T14:52:29;30.30;31.50
10231;DHT22;62604;49.432;8.680;2022-08-01T14:54:58;30.10;30.90
10231;DHT22;62604;49.432;8.680;2022-08-01T14:57:25;30.10;31.00
10231;DHT22;62604;49.432;8.680;2022-08-01T14:59:52;30.00;31.40
10231;DHT22;62604;49.432;8.680;2022-08-01T15:02:19;30.00;30.80
10231;DHT22;62604;49.432;8.680;2022-08-01T15:04:46;30.00;30.40
10231;DHT22;62604;49.432;8.680;2022-08-01T15:07:14;30.00;30.00
10231;DHT22;62604;49.432;8.680;2022-08-01T15:09:41;30.10;30.40
10231;DHT22;62604;49.432;8.680;2022-08-01T15:12:11;30.20;29.20
10231;DHT22;62604;49.432;8.680;2022-08-01T15:14:39;30.30;28.90
10231;DHT22;62604;49.432;8.680;2022-08-01T15:17:16;30.40;29.30
10231;DHT22;62604;49.432;8.680;2022-08-01T15:19:44;30.20;29.30
10231;DHT22;62604;49.432;8.680;2022-08-01T15:22:11;30.40;29.60
10231;DHT22;62604;49.432;8.680;2022-08-01T15:24:38;30.40;29.50
10231;DHT22;62604;49.432;8.680;2022-08-01T15:27:05;30.30;29.40
10231;DHT22;62604;49.432;8.680;2022-08-01T15:29:34;30.10;29.00
10231;DHT22;62604;49.432;8.680;2022-08-01T15:32:01;30.00;29.20
10231;DHT22;62604;49.432;8.680;2022-08-01T15:34:28;30.00;30.60
10231;DHT22;62604;49.432;8.680;2022-08-01T15:36:55;30.00;31.10
10231;DHT22;62604;49.432;8.680;2022-08-01T15:39:23;29.90;31.20
10231;DHT22;62604;49.432;8.680;2022-08-01T15:41:50;29.90;30.80
10231;DHT22;62604;49.432;8.680;2022-08-01T15:44:18;29.80;30.40
10231;DHT22;62604;49.432;8.680;2022-08-01T15:46:47;29.80;30.60
10231;DHT22;62604;49.432;8.680;2022-08-01T15:49:14;29.80;31.10
10231;DHT22;62604;49.432;8.680;2022-08-01T15:51:42;29.80;30.90
10231;DHT22;62604;49.432;8.680;2022-08-01T15:54:09;29.80;30.90
10231;DHT22;62604;49.432;8.680;2022-08-01T15:56:37;29.80;30.40
10231;DHT22;62604;49.432;8.680;2022-08-01T15:59:05;29.70;30.50